Pagina principale
METAR-TAF:

METAR-TAF

Aeroporti :

Mendoza, Argentina

latitudine: 32-50S, longitudine: 068-47W, altezza: 705 m

Osservazione

Il bollettino è stato emesso 1 ora e 15 minuti fa, alle 14:00 UTC
Vento 5 kt da est
Temperature 23°C
Umidità 61%
Pressione 1012 hPa
Visibilità 10 km o più
nessuna nube inferiore a 1500 m e nessun cumulonembo

METAR: SAME 201400Z 09005KT CAVOK 23/15 Q1012

Ora: 12:15 (15:15 UTC)

Previsione

Il bollettino è stato emesso 4 ore e 15 minuti fa, alle 11:00 UTC
Previsione valida dal 20 alle 12 UTC al 21 alle 12 UTC
Vento 5 kt da nord-est
Visibilità 10 km o più
nessuna nube inferiore a 1500 m e nessun cumulonembo

TAF: SAME 201100Z 2012/2112 05005KT CAVOK TX34/2020Z TN16/2110Z

Osservazioni e previsioni meteorologiche di più di 4000 aeroporti (messaggi METAR e TAF).

Le stazioni disponibili sono rappresentate dai dischi gialli e rossi sulla carta.

Puntare il mouse per vedere il nome della stazione.

Clicca sopra per visualizzare le osservazioni e previsioni meteorologiche.

Per cambiare la mappa : fare clic sui pulsanti verdi con una croce nera per ingrandire, il pulsante verde con un trattino per diminuire, o sulla freccia verde per le mappe adiacenti.


METAR-TAF: